sensor_id;sensor_type;location;lat;lon;timestamp;temperature;humidity
4431;DHT22;2228;48.140;11.488;2023-07-29T00:02:21;16.90;99.90
4431;DHT22;2228;48.140;11.488;2023-07-29T00:04:48;17.10;99.90
4431;DHT22;2228;48.140;11.488;2023-07-29T00:07:15;16.80;99.90
4431;DHT22;2228;48.140;11.488;2023-07-29T00:09:44;17.10;99.90
4431;DHT22;2228;48.140;11.488;2023-07-29T00:12:11;16.80;99.90
4431;DHT22;2228;48.140;11.488;2023-07-29T00:14:37;16.90;99.90
4431;DHT22;2228;48.140;11.488;2023-07-29T00:17:04;16.90;99.90
4431;DHT22;2228;48.140;11.488;2023-07-29T00:19:31;16.80;99.90
4431;DHT22;2228;48.140;11.488;2023-07-29T00:21:59;16.80;99.90
4431;DHT22;2228;48.140;11.488;2023-07-29T00:24:27;17.00;99.90
4431;DHT22;2228;48.140;11.488;2023-07-29T00:26:55;16.90;99.90
4431;DHT22;2228;48.140;11.488;2023-07-29T00:29:22;17.20;99.90
4431;DHT22;2228;48.140;11.488;2023-07-29T00:31:57;17.00;99.90
4431;DHT22;2228;48.140;11.488;2023-07-29T00:34:25;17.00;99.90
4431;DHT22;2228;48.140;11.488;2023-07-29T00:36:52;17.20;99.90
4431;DHT22;2228;48.140;11.488;2023-07-29T00:39:20;17.00;99.90
4431;DHT22;2228;48.140;11.488;2023-07-29T00:41:51;17.00;99.90
4431;DHT22;2228;48.140;11.488;2023-07-29T00:47:45;17.20;99.90
4431;DHT22;2228;48.140;11.488;2023-07-29T10:55:27;29.40;1.00
4431;DHT22;2228;48.140;11.488;2023-07-29T10:58:12;29.70;1.00
4431;DHT22;2228;48.140;11.488;2023-07-29T11:00:40;29.70;1.00
4431;DHT22;2228;48.140;11.488;2023-07-29T11:03:08;29.80;1.00
4431;DHT22;2228;48.140;11.488;2023-07-29T11:05:53;30.00;1.00
4431;DHT22;2228;48.140;11.488;2023-07-29T11:08:22;29.60;1.00
4431;DHT22;2228;48.140;11.488;2023-07-29T11:11:01;29.50;1.00
4431;DHT22;2228;48.140;11.488;2023-07-29T11:13:29;28.60;1.00
4431;DHT22;2228;48.140;11.488;2023-07-29T11:15:57;27.90;1.00
4431;DHT22;2228;48.140;11.488;2023-07-29T11:18:27;27.10;1.00
4431;DHT22;2228;48.140;11.488;2023-07-29T11:20:55;26.20;1.00
4431;DHT22;2228;48.140;11.488;2023-07-29T11:23:28;25.70;1.00
4431;DHT22;2228;48.140;11.488;2023-07-29T11:25:56;25.10;1.00
4431;DHT22;2228;48.140;11.488;2023-07-29T11:28:25;24.70;1.00
4431;DHT22;2228;48.140;11.488;2023-07-29T11:30:52;24.40;1.00
4431;DHT22;2228;48.140;11.488;2023-07-29T11:33:21;24.10;1.00
4431;DHT22;2228;48.140;11.488;2023-07-29T11:35:49;24.70;1.00
4431;DHT22;2228;48.140;11.488;2023-07-29T11:38:16;25.50;1.00
4431;DHT22;2228;48.140;11.488;2023-07-29T11:40:53;25.70;1.00
4431;DHT22;2228;48.140;11.488;2023-07-29T11:43:20;25.90;1.00
4431;DHT22;2228;48.140;11.488;2023-07-29T11:45:48;25.80;1.00
4431;DHT22;2228;48.140;11.488;2023-07-29T11:48:15;25.40;1.00
4431;DHT22;2228;48.140;11.488;2023-07-29T11:50:42;26.70;1.00
4431;DHT22;2228;48.140;11.488;2023-07-29T11:53:11;26.60;1.00
4431;DHT22;2228;48.140;11.488;2023-07-29T11:55:37;26.60;1.00
4431;DHT22;2228;48.140;11.488;2023-07-29T11:58:05;27.00;1.00
4431;DHT22;2228;48.140;11.488;2023-07-29T12:00:33;27.60;1.00
4431;DHT22;2228;48.140;11.488;2023-07-29T12:03:05;28.40;1.00
4431;DHT22;2228;48.140;11.488;2023-07-29T12:05:34;29.40;1.00
4431;DHT22;2228;48.140;11.488;2023-07-29T12:08:01;29.40;1.00
4431;DHT22;2228;48.140;11.488;2023-07-29T12:10:28;29.60;1.00
4431;DHT22;2228;48.140;11.488;2023-07-29T12:12:56;29.70;1.00
4431;DHT22;2228;48.140;11.488;2023-07-29T12:15:24;29.60;1.00
4431;DHT22;2228;48.140;11.488;2023-07-29T12:17:53;30.10;1.00
4431;DHT22;2228;48.140;11.488;2023-07-29T12:20:23;29.90;1.00
4431;DHT22;2228;48.140;11.488;2023-07-29T12:22:55;30.60;1.00
4431;DHT22;2228;48.140;11.488;2023-07-29T12:25:22;31.80;1.00
4431;DHT22;2228;48.140;11.488;2023-07-29T12:27:49;31.60;1.00
4431;DHT22;2228;48.140;11.488;2023-07-29T12:30:20;31.40;1.00
4431;DHT22;2228;48.140;11.488;2023-07-29T12:32:47;31.60;1.00
4431;DHT22;2228;48.140;11.488;2023-07-29T12:35:14;31.30;1.00
4431;DHT22;2228;48.140;11.488;2023-07-29T12:37:42;29.60;1.00
4431;DHT22;2228;48.140;11.488;2023-07-29T12:40:23;28.70;1.00
4431;DHT22;2228;48.140;11.488;2023-07-29T12:42:51;27.90;1.00
4431;DHT22;2228;48.140;11.488;2023-07-29T12:45:18;27.10;1.00
4431;DHT22;2228;48.140;11.488;2023-07-29T12:47:48;26.70;1.00
4431;DHT22;2228;48.140;11.488;2023-07-29T12:50:15;25.90;1.00
4431;DHT22;2228;48.140;11.488;2023-07-29T12:52:43;25.00;1.00
4431;DHT22;2228;48.140;11.488;2023-07-29T12:55:10;24.00;1.00
4431;DHT22;2228;48.140;11.488;2023-07-29T12:57:41;23.10;1.00
4431;DHT22;2228;48.140;11.488;2023-07-29T13:00:09;22.30;1.00
4431;DHT22;2228;48.140;11.488;2023-07-29T13:02:36;21.80;76.60
4431;DHT22;2228;48.140;11.488;2023-07-29T13:05:09;21.40;99.90
4431;DHT22;2228;48.140;11.488;2023-07-29T13:07:37;21.20;99.90
4431;DHT22;2228;48.140;11.488;2023-07-29T13:10:06;21.20;1.00
4431;DHT22;2228;48.140;11.488;2023-07-29T13:12:33;20.60;1.00
4431;DHT22;2228;48.140;11.488;2023-07-29T13:15:00;20.40;37.10
4431;DHT22;2228;48.140;11.488;2023-07-29T13:17:27;20.20;99.90
4431;DHT22;2228;48.140;11.488;2023-07-29T13:19:54;20.20;99.90
4431;DHT22;2228;48.140;11.488;2023-07-29T13:22:21;20.50;99.90
4431;DHT22;2228;48.140;11.488;2023-07-29T13:24:48;20.60;88.30
4431;DHT22;2228;48.140;11.488;2023-07-29T13:27:16;20.40;99.90
4431;DHT22;2228;48.140;11.488;2023-07-29T13:29:43;20.50;99.90
4431;DHT22;2228;48.140;11.488;2023-07-29T13:32:11;20.60;99.90
4431;DHT22;2228;48.140;11.488;2023-07-29T13:34:38;20.80;99.90
4431;DHT22;2228;48.140;11.488;2023-07-29T13:37:06;20.90;99.90
4431;DHT22;2228;48.140;11.488;2023-07-29T13:39:33;21.00;98.70
4431;DHT22;2228;48.140;11.488;2023-07-29T13:41:59;20.90;99.90
4431;DHT22;2228;48.140;11.488;2023-07-29T13:44:40;21.20;95.40
4431;DHT22;2228;48.140;11.488;2023-07-29T13:47:07;21.00;1.00
4431;DHT22;2228;48.140;11.488;2023-07-29T13:49:34;21.00;1.00
4431;DHT22;2228;48.140;11.488;2023-07-29T13:52:01;21.50;1.00
4431;DHT22;2228;48.140;11.488;2023-07-29T13:54:31;20.80;1.00
4431;DHT22;2228;48.140;11.488;2023-07-29T13:56:58;20.80;1.00
4431;DHT22;2228;48.140;11.488;2023-07-29T13:59:25;20.80;1.00
4431;DHT22;2228;48.140;11.488;2023-07-29T14:01:53;20.80;1.00
4431;DHT22;2228;48.140;11.488;2023-07-29T14:04:20;20.70;1.00
4431;DHT22;2228;48.140;11.488;2023-07-29T14:06:47;20.50;1.00
4431;DHT22;2228;48.140;11.488;2023-07-29T14:09:14;20.50;1.00
4431;DHT22;2228;48.140;11.488;2023-07-29T14:11:41;20.80;1.00
4431;DHT22;2228;48.140;11.488;2023-07-29T14:14:24;20.30;1.00
4431;DHT22;2228;48.140;11.488;2023-07-29T14:17:03;20.40;19.20
4431;DHT22;2228;48.140;11.488;2023-07-29T14:19:31;20.30;1.00
4431;DHT22;2228;48.140;11.488;2023-07-29T14:21:58;20.40;18.00
4431;DHT22;2228;48.140;11.488;2023-07-29T14:24:25;20.30;20.60
4431;DHT22;2228;48.140;11.488;2023-07-29T14:26:52;20.30;63.90
4431;DHT22;2228;48.140;11.488;2023-07-29T14:29:19;20.30;1.00
4431;DHT22;2228;48.140;11.488;2023-07-29T14:31:46;20.40;1.00
4431;DHT22;2228;48.140;11.488;2023-07-29T14:34:14;20.50;1.00
4431;DHT22;2228;48.140;11.488;2023-07-29T14:36:41;20.50;1.00
4431;DHT22;2228;48.140;11.488;2023-07-29T14:39:08;20.20;1.00
4431;DHT22;2228;48.140;11.488;2023-07-29T14:41:37;20.10;1.00
4431;DHT22;2228;48.140;11.488;2023-07-29T14:44:04;19.80;75.60
4431;DHT22;2228;48.140;11.488;2023-07-29T14:46:30;19.70;26.40
4431;DHT22;2228;48.140;11.488;2023-07-29T14:48:58;19.50;77.50
4431;DHT22;2228;48.140;11.488;2023-07-29T14:51:26;19.40;99.90
4431;DHT22;2228;48.140;11.488;2023-07-29T14:53:53;19.50;25.10
4431;DHT22;2228;48.140;11.488;2023-07-29T14:56:20;19.40;99.90
4431;DHT22;2228;48.140;11.488;2023-07-29T14:58:47;19.40;99.90
4431;DHT22;2228;48.140;11.488;2023-07-29T15:01:16;19.30;99.90
4431;DHT22;2228;48.140;11.488;2023-07-29T15:03:46;19.30;99.90
4431;DHT22;2228;48.140;11.488;2023-07-29T15:06:13;19.20;55.40
4431;DHT22;2228;48.140;11.488;2023-07-29T15:08:41;19.20;72.70
4431;DHT22;2228;48.140;11.488;2023-07-29T15:11:08;19.70;98.10
4431;DHT22;2228;48.140;11.488;2023-07-29T15:13:34;19.30;41.70
4431;DHT22;2228;48.140;11.488;2023-07-29T15:16:01;19.30;99.90
4431;DHT22;2228;48.140;11.488;2023-07-29T15:18:28;19.40;99.90
4431;DHT22;2228;48.140;11.488;2023-07-29T15:20:56;19.50;99.90
4431;DHT22;2228;48.140;11.488;2023-07-29T15:23:23;19.60;99.90
4431;DHT22;2228;48.140;11.488;2023-07-29T15:25:51;19.80;99.90
4431;DHT22;2228;48.140;11.488;2023-07-29T15:28:18;20.10;90.80
4431;DHT22;2228;48.140;11.488;2023-07-29T15:30:45;20.10;19.60
4431;DHT22;2228;48.140;11.488;2023-07-29T15:33:14;20.20;1.00
4431;DHT22;2228;48.140;11.488;2023-07-29T15:35:42;20.40;20.60
4431;DHT22;2228;48.140;11.488;2023-07-29T15:38:08;20.30;1.00
4431;DHT22;2228;48.140;11.488;2023-07-29T15:40:37;20.30;1.00
4431;DHT22;2228;48.140;11.488;2023-07-29T15:43:06;20.30;1.00
4431;DHT22;2228;48.140;11.488;2023-07-29T15:45:32;20.40;1.00
4431;DHT22;2228;48.140;11.488;2023-07-29T15:47:59;20.60;1.00
4431;DHT22;2228;48.140;11.488;2023-07-29T15:50:26;20.60;1.00
4431;DHT22;2228;48.140;11.488;2023-07-29T15:52:53;20.90;1.00
4431;DHT22;2228;48.140;11.488;2023-07-29T15:55:21;20.70;1.00
4431;DHT22;2228;48.140;11.488;2023-07-29T15:57:49;20.80;1.00
4431;DHT22;2228;48.140;11.488;2023-07-29T16:00:17;21.30;1.00
